createdAt,value
2022-11-04T00:02:17.314Z,99424.22
2022-11-04T00:04:46.846Z,99429.66
2022-11-04T00:07:28.515Z,99423.78
2022-11-04T00:09:57.128Z,99408.75
2022-11-04T00:12:27.039Z,99400.50
2022-11-04T00:15:15.261Z,99408.38
2022-11-04T00:17:42.140Z,99415.47
2022-11-04T00:20:30.081Z,99417.00
2022-11-04T00:23:30.389Z,99424.25
2022-11-04T00:26:17.228Z,99421.91
2022-11-04T00:28:45.333Z,99431.34
2022-11-04T00:31:34.217Z,99437.16
2022-11-04T00:34:02.137Z,99437.38
2022-11-04T00:36:31.220Z,99433.31
2022-11-04T00:38:59.487Z,99428.47
2022-11-04T00:41:27.822Z,99431.31
2022-11-04T00:43:57.498Z,99435.66
2022-11-04T00:46:25.742Z,99437.19
2022-11-04T00:48:56.711Z,99440.69
2022-11-04T00:51:25.280Z,99434.00
2022-11-04T00:53:54.812Z,99448.28
2022-11-04T00:56:23.055Z,99455.75
2022-11-04T00:58:51.086Z,99455.66
2022-11-04T01:01:19.756Z,99422.47
2022-11-04T01:03:49.177Z,99469.81
2022-11-04T01:06:27.825Z,99464.16
2022-11-04T01:09:01.780Z,99438.03
2022-11-04T01:11:31.352Z,99462.69
2022-11-04T01:13:59.444Z,99459.31
2022-11-04T01:19:01.089Z,99469.44
2022-11-04T01:21:29.365Z,99468.91
2022-11-04T01:23:57.661Z,99464.75
2022-11-04T01:26:30.131Z,99461.22
2022-11-04T01:28:58.918Z,99459.69
2022-11-04T01:31:28.542Z,99470.88
2022-11-04T01:34:07.759Z,99470.22
2022-11-04T01:36:52.171Z,99471.41
2022-11-04T01:39:19.976Z,99470.66
2022-11-04T01:42:07.696Z,99463.75
2022-11-04T01:45:02.538Z,99463.84
2022-11-04T01:47:33.554Z,99467.03
2022-11-04T01:50:05.984Z,99466.16
2022-11-04T01:52:37.966Z,99479.75
2022-11-04T01:55:14.596Z,99484.78
2022-11-04T01:57:48.045Z,99483.16
2022-11-04T02:00:17.246Z,99475.47
2022-11-04T02:03:04.404Z,99485.69
2022-11-04T02:05:32.333Z,99473.19
2022-11-04T02:08:02.694Z,99468.13
2022-11-04T02:10:37.585Z,99474.03
2022-11-04T02:13:13.545Z,99469.13
2022-11-04T02:15:53.554Z,99453.44
2022-11-04T02:18:37.417Z,99472.91
2022-11-04T02:21:36.788Z,99477.88
2022-11-04T02:24:32.873Z,99470.94
2022-11-04T02:27:28.329Z,99467.56
2022-11-04T02:30:17.021Z,99465.91
2022-11-04T02:33:09.880Z,99468.75
2022-11-04T02:35:48.721Z,99462.19
2022-11-04T02:38:31.670Z,99476.22
2022-11-04T02:41:05.566Z,99467.09
2022-11-04T02:44:03.487Z,99484.94
2022-11-04T02:46:38.986Z,99488.47
2022-11-04T02:49:13.246Z,99466.50
2022-11-04T02:51:49.313Z,99482.97
2022-11-04T02:54:23.310Z,99485.69
2022-11-04T02:56:54.218Z,99467.94
2022-11-04T02:59:36.293Z,99477.25
2022-11-04T03:02:10.191Z,99472.13
2022-11-04T03:04:44.916Z,99468.28
2022-11-04T03:07:16.300Z,99477.91
2022-11-04T03:09:50.590Z,99478.56
2022-11-04T03:12:20.635Z,99479.13
2022-11-04T03:14:53.790Z,99483.09
2022-11-04T03:17:34.993Z,99487.03
2022-11-04T03:20:06.887Z,99496.03
2022-11-04T03:22:36.957Z,99485.97
2022-11-04T03:25:06.473Z,99514.34
2022-11-04T03:27:40.144Z,99522.69
2022-11-04T03:30:13.264Z,99531.00
2022-11-04T03:32:52.722Z,99545.16
2022-11-04T03:35:21.194Z,99557.56
2022-11-04T03:37:58.031Z,99552.97
2022-11-04T03:40:27.389Z,99538.38
2022-11-04T03:43:06.914Z,99571.03
2022-11-04T03:45:34.956Z,99574.75
2022-11-04T03:48:07.831Z,99572.66
2022-11-04T03:50:42.509Z,99586.66
2022-11-04T03:53:13.311Z,99596.53
2022-11-04T03:56:08.245Z,99602.22
2022-11-04T03:58:59.634Z,99605.16
2022-11-04T04:01:37.053Z,99605.28
2022-11-04T04:04:14.297Z,99606.16
2022-11-04T04:06:44.442Z,99617.22
2022-11-04T04:09:19.025Z,99613.81
2022-11-04T04:11:57.077Z,99598.72
2022-11-04T04:14:48.469Z,99604.28
2022-11-04T04:17:20.797Z,99612.84
2022-11-04T04:19:55.131Z,99608.56
2022-11-04T04:22:26.132Z,99617.66
2022-11-04T04:25:15.247Z,99619.09
2022-11-04T04:27:45.148Z,99628.28
2022-11-04T04:30:15.488Z,99628.28
2022-11-04T04:32:46.022Z,99632.31
2022-11-04T04:35:38.241Z,99650.16
2022-11-04T04:38:27.318Z,99643.59
2022-11-04T04:41:18.936Z,99650.41
2022-11-04T04:44:03.961Z,99650.41
2022-11-04T04:46:33.235Z,99653.69
2022-11-04T04:49:06.154Z,99654.56
2022-11-04T04:51:40.274Z,99653.78
2022-11-04T04:54:08.372Z,99620.56
2022-11-04T04:56:36.211Z,99647.13
2022-11-04T04:59:04.512Z,99650.16
2022-11-04T05:01:32.550Z,99643.81
2022-11-04T05:04:00.428Z,99658.47
2022-11-04T05:06:30.516Z,99661.50
2022-11-04T05:08:59.806Z,99664.56
2022-11-04T05:11:30.510Z,99664.75
2022-11-04T05:13:58.337Z,99672.31
2022-11-04T05:16:26.358Z,99671.06
2022-11-04T05:18:55.122Z,99670.06
2022-11-04T05:21:23.082Z,99685.06
2022-11-04T05:23:50.920Z,99692.53
2022-11-04T05:26:20.774Z,99683.00
2022-11-04T05:28:48.715Z,99690.03
2022-11-04T05:31:18.530Z,99687.34
2022-11-04T05:33:46.477Z,99701.72
2022-11-04T05:36:16.018Z,99713.94
2022-11-04T05:38:44.842Z,99720.09
2022-11-04T05:41:25.665Z,99706.28
2022-11-04T05:43:55.823Z,99701.78
2022-11-04T05:46:24.135Z,99693.75
2022-11-04T05:48:52.492Z,99707.09
2022-11-04T05:51:22.365Z,99682.88
2022-11-04T05:53:50.263Z,99692.19
2022-11-04T05:56:21.360Z,99715.16
2022-11-04T05:58:50.576Z,99717.91
2022-11-04T06:01:28.785Z,99719.56
2022-11-04T06:03:57.298Z,99692.31
2022-11-04T06:06:27.488Z,99713.41
2022-11-04T06:09:20.866Z,99732.00
2022-11-04T06:11:48.740Z,99735.41
2022-11-04T06:14:18.860Z,99742.84
2022-11-04T06:16:48.414Z,99741.22
2022-11-04T06:19:16.490Z,99737.91
2022-11-04T06:21:44.545Z,99742.06
2022-11-04T06:24:12.820Z,99762.97
2022-11-04T06:26:41.201Z,99770.50
2022-11-04T06:29:09.946Z,99786.50
2022-11-04T06:31:37.723Z,99789.50
2022-11-04T06:34:07.002Z,99796.25
2022-11-04T06:36:34.999Z,99803.00
2022-11-04T06:39:04.955Z,99813.06
2022-11-04T06:41:33.259Z,99814.53
2022-11-04T06:44:03.006Z,99819.16
2022-11-04T06:46:34.949Z,99824.19
2022-11-04T06:49:02.925Z,99845.94
2022-11-04T06:51:32.437Z,99846.31
2022-11-04T06:54:00.216Z,99841.28
2022-11-04T06:56:28.292Z,99833.09
2022-11-04T06:58:56.873Z,99827.53
2022-11-04T07:01:26.964Z,99810.53
2022-11-04T07:04:02.047Z,99806.09
2022-11-04T07:06:31.328Z,99817.06
2022-11-04T07:09:02.636Z,99819.78
2022-11-04T07:11:33.259Z,99827.34
2022-11-04T07:14:01.170Z,99837.44
2022-11-04T07:16:28.971Z,99839.44
2022-11-04T07:18:56.999Z,99844.84
2022-11-04T07:21:24.893Z,99827.31
2022-11-04T07:23:52.907Z,99831.81
2022-11-04T07:26:22.090Z,99841.38
2022-11-04T07:28:50.184Z,99818.50
2022-11-04T07:31:19.545Z,99843.25
2022-11-04T07:33:50.145Z,99835.69
2022-11-04T07:36:19.017Z,99837.69
2022-11-04T07:38:49.934Z,99844.88
2022-11-04T07:41:18.566Z,99836.94
2022-11-04T07:43:51.443Z,99849.28
2022-11-04T07:46:21.895Z,99855.19
2022-11-04T07:48:49.719Z,99859.47
2022-11-04T07:51:20.949Z,99861.25
2022-11-04T07:53:48.801Z,99862.75
2022-11-04T07:56:16.689Z,99870.31
2022-11-04T07:58:44.537Z,99872.06
2022-11-04T08:01:16.406Z,99862.63
2022-11-04T08:03:44.699Z,99866.38
2022-11-04T08:06:15.457Z,99870.75
2022-11-04T08:08:46.247Z,99870.91
2022-11-04T08:11:17.978Z,99879.59
2022-11-04T08:13:47.184Z,99868.81
2022-11-04T08:16:18.399Z,99881.72
2022-11-04T08:18:48.338Z,99899.50
2022-11-04T08:21:19.448Z,99902.78
2022-11-04T08:23:48.218Z,99912.41
2022-11-04T08:26:18.732Z,99910.88
2022-11-04T08:28:47.668Z,99905.84
2022-11-04T08:31:21.723Z,99912.75
2022-11-04T08:33:49.517Z,99871.97
2022-11-04T08:36:22.690Z,99906.69
2022-11-04T08:38:50.447Z,99908.94
2022-11-04T08:41:24.438Z,99914.88
2022-11-04T08:43:56.803Z,99899.28
2022-11-04T08:46:26.020Z,99908.53
2022-11-04T08:48:54.147Z,99909.66
2022-11-04T08:51:24.197Z,99901.44
2022-11-04T08:53:52.265Z,99910.47
2022-11-04T08:56:21.563Z,99902.25
2022-11-04T08:58:50.390Z,99910.28
2022-11-04T09:01:21.288Z,99903.59
2022-11-04T09:03:56.514Z,99918.44
2022-11-04T09:06:27.935Z,99918.69
2022-11-04T09:08:58.303Z,99883.50
2022-11-04T09:11:26.129Z,99913.91
2022-11-04T09:13:59.496Z,99918.28
2022-11-04T09:16:29.113Z,99916.78
2022-11-04T09:19:01.010Z,99929.97
2022-11-04T09:21:29.824Z,99933.34
2022-11-04T09:23:58.270Z,99910.53
2022-11-04T09:26:29.213Z,99901.81
2022-11-04T09:28:58.344Z,99932.16
2022-11-04T09:31:32.214Z,99937.97
2022-11-04T09:34:01.472Z,99931.94
2022-11-04T09:36:32.314Z,99927.66
2022-11-04T09:39:00.147Z,99925.53
2022-11-04T09:42:06.545Z,99925.59
2022-11-04T09:45:14.893Z,99935.25
2022-11-04T09:47:35.997Z,99929.25
2022-11-04T09:50:11.332Z,99936.94
2022-11-04T09:52:45.334Z,99937.03
2022-11-04T09:55:22.210Z,99938.56
2022-11-04T09:57:55.877Z,99934.50
2022-11-04T10:00:33.656Z,99927.84
2022-11-04T10:03:21.863Z,99920.38
2022-11-04T10:06:14.949Z,99900.19
2022-11-04T10:09:10.098Z,99914.69
2022-11-04T10:11:53.362Z,99919.22
2022-11-04T10:14:41.850Z,99919.75
2022-11-04T10:17:35.390Z,99928.09
2022-11-04T10:20:21.064Z,99927.31
2022-11-04T10:23:03.365Z,99921.94
2022-11-04T10:25:46.864Z,99923.53
2022-11-04T10:28:26.271Z,99929.00
2022-11-04T10:30:55.905Z,99930.53
2022-11-04T10:33:30.195Z,99943.72
2022-11-04T10:35:59.561Z,99956.75
2022-11-04T10:38:34.835Z,99965.09
2022-11-04T10:41:07.236Z,99974.09
2022-11-04T10:43:38.532Z,99966.78
2022-11-04T10:46:27.994Z,99970.41
2022-11-04T10:49:06.553Z,99971.31
2022-11-04T10:51:34.376Z,99956.06
2022-11-04T10:54:11.279Z,99980.25
2022-11-04T10:56:44.155Z,99981.19
2022-11-04T10:59:24.708Z,99968.69
2022-11-04T11:01:54.576Z,99986.59
2022-11-04T11:04:41.372Z,99982.88
2022-11-04T11:07:11.457Z,99986.16
2022-11-04T11:09:54.101Z,99984.97
2022-11-04T11:12:50.184Z,99980.88
2022-11-04T11:15:30.296Z,99973.78
2022-11-04T11:18:02.309Z,99971.47
2022-11-04T11:20:32.511Z,99970.69
2022-11-04T11:23:04.873Z,99965.47
2022-11-04T11:25:36.040Z,99969.03
2022-11-04T11:28:07.403Z,99959.50
2022-11-04T11:30:57.351Z,99969.06
2022-11-04T11:33:28.062Z,99963.78
2022-11-04T11:36:00.004Z,99962.97
2022-11-04T11:38:29.617Z,99965.72
2022-11-04T11:41:24.457Z,99970.44
2022-11-04T11:43:56.342Z,99975.84
2022-11-04T11:46:26.049Z,99978.47
2022-11-04T11:49:00.979Z,99984.75
2022-11-04T11:51:32.467Z,99982.66
2022-11-04T11:54:16.556Z,99994.63
2022-11-04T11:57:12.761Z,99994.19
2022-11-04T12:02:46.980Z,99979.91
2022-11-04T12:11:16.701Z,99971.53
2022-11-04T12:13:53.686Z,99990.22
2022-11-04T12:16:30.234Z,99986.94
2022-11-04T12:19:14.508Z,99988.47
2022-11-04T12:21:48.618Z,99987.50
2022-11-04T12:24:28.645Z,99987.84
2022-11-04T12:27:08.081Z,99981.31
2022-11-04T12:29:54.869Z,99990.78
2022-11-04T12:32:31.034Z,99988.78
2022-11-04T12:35:12.180Z,99986.38
2022-11-04T12:37:52.374Z,99989.53
2022-11-04T12:40:30.112Z,99990.53
2022-11-04T12:43:09.596Z,99987.47
2022-11-04T12:45:49.705Z,99992.34
2022-11-04T12:48:34.372Z,99989.59
2022-11-04T12:51:09.414Z,99995.03
2022-11-04T12:54:12.768Z,99994.78
2022-11-04T12:56:41.656Z,99992.63
2022-11-04T12:59:39.002Z,99976.88
2022-11-04T13:02:18.908Z,100008.69
2022-11-04T13:05:00.253Z,100014.41
2022-11-04T13:07:33.012Z,100014.16
2022-11-04T13:10:07.066Z,100017.50
2022-11-04T13:12:40.673Z,100025.09
2022-11-04T13:15:20.126Z,100030.69
2022-11-04T13:17:54.103Z,100037.91
2022-11-04T13:20:30.729Z,100039.91
2022-11-04T13:23:04.125Z,100035.72
2022-11-04T13:25:35.841Z,100042.09
2022-11-04T13:28:04.972Z,100040.97
2022-11-04T13:30:40.610Z,100011.44
2022-11-04T13:33:22.441Z,100054.19
2022-11-04T13:35:58.227Z,100054.94
2022-11-04T13:38:32.803Z,100056.56
2022-11-04T13:41:21.560Z,100062.03
2022-11-04T13:43:54.486Z,100050.34
2022-11-04T13:46:30.475Z,100063.47
2022-11-04T13:49:03.876Z,100060.22
2022-11-04T13:51:37.887Z,100065.72
2022-11-04T13:54:07.755Z,100057.50
2022-11-04T13:56:38.456Z,100075.28
2022-11-04T13:59:23.584Z,100067.94
2022-11-04T14:02:26.707Z,100075.41
2022-11-04T14:04:57.783Z,100072.66
2022-11-04T14:08:13.402Z,100075.34
2022-11-04T14:10:46.695Z,100068.84
2022-11-04T14:13:46.297Z,100079.59
2022-11-04T14:16:44.118Z,100080.47
2022-11-04T14:19:57.543Z,100091.00
2022-11-04T14:22:35.289Z,100093.69
2022-11-04T14:25:19.628Z,100094.53
2022-11-04T14:27:49.734Z,100094.72
2022-11-04T14:30:35.159Z,100113.81
2022-11-04T14:33:07.694Z,100114.22
2022-11-04T14:35:38.917Z,100115.63
2022-11-04T14:38:30.867Z,100123.19
2022-11-04T14:41:24.424Z,100119.00
2022-11-04T14:43:56.730Z,100123.81
2022-11-04T14:46:27.542Z,100122.94
2022-11-04T14:49:01.127Z,100123.19
2022-11-04T14:51:34.288Z,100127.56
2022-11-04T14:54:09.223Z,100136.41
2022-11-04T14:56:37.098Z,100130.97
2022-11-04T14:59:06.901Z,100132.06
2022-11-04T15:01:41.561Z,100131.28
2022-11-04T15:04:19.254Z,100130.06
2022-11-04T15:06:55.847Z,100130.88
2022-11-04T15:09:27.652Z,100139.19
2022-11-04T15:12:23.621Z,100156.34
2022-11-04T15:14:52.494Z,100158.97
2022-11-04T15:17:23.442Z,100167.97
2022-11-04T15:19:54.706Z,100162.31
2022-11-04T15:22:25.964Z,100159.81
2022-11-04T15:24:56.758Z,100159.59
2022-11-04T15:27:29.581Z,100154.72
2022-11-04T15:30:00.564Z,100163.19
2022-11-04T15:32:28.871Z,100168.63
2022-11-04T15:34:59.589Z,100169.75
2022-11-04T15:37:36.681Z,100163.56
2022-11-04T15:40:08.238Z,100172.41
2022-11-04T15:42:43.068Z,100153.59
2022-11-04T15:45:38.546Z,100180.72
2022-11-04T15:48:26.062Z,100184.34
2022-11-04T15:51:06.987Z,100193.19
2022-11-04T15:53:47.991Z,100192.91
2022-11-04T15:56:19.000Z,100194.19
2022-11-04T15:58:47.802Z,100196.94
2022-11-04T16:01:16.868Z,100189.75
2022-11-04T16:03:51.327Z,100200.69
2022-11-04T16:06:19.261Z,100203.72
2022-11-04T16:09:02.178Z,100210.25
2022-11-04T16:11:31.485Z,100208.09
2022-11-04T16:14:23.002Z,100220.56
2022-11-04T16:16:52.867Z,100221.06
2022-11-04T16:19:26.742Z,100221.84
2022-11-04T16:22:00.744Z,100232.53
2022-11-04T16:24:32.818Z,100238.09
2022-11-04T16:27:28.608Z,100238.59
2022-11-04T16:30:13.116Z,100236.22
2022-11-04T16:32:42.102Z,100242.16
2022-11-04T16:35:28.862Z,100240.25
2022-11-04T16:37:57.309Z,100236.59
2022-11-04T16:40:34.996Z,100249.53
2022-11-04T16:43:04.539Z,100241.34
2022-11-04T16:45:37.941Z,100253.66
2022-11-04T16:48:06.471Z,100245.44
2022-11-04T16:50:34.377Z,100254.66
2022-11-04T16:53:03.680Z,100255.88
2022-11-04T16:55:34.473Z,100254.25
2022-11-04T16:58:05.802Z,100229.13
2022-11-04T17:00:34.460Z,100252.19
2022-11-04T17:03:05.455Z,100255.31
2022-11-04T17:05:36.508Z,100248.63
2022-11-04T17:08:06.206Z,100261.06
2022-11-04T17:10:37.111Z,100263.22
2022-11-04T17:13:06.615Z,100261.19
2022-11-04T17:15:39.276Z,100257.81
2022-11-04T17:18:16.329Z,100238.56
2022-11-04T17:20:45.923Z,100270.94
2022-11-04T17:23:15.255Z,100270.69
2022-11-04T17:25:43.862Z,100275.44
2022-11-04T17:28:14.032Z,100285.50
2022-11-04T17:30:42.319Z,100255.09
2022-11-04T17:33:13.879Z,100284.84
2022-11-04T17:35:42.987Z,100288.53
2022-11-04T17:38:14.662Z,100298.84
2022-11-04T17:40:56.691Z,100306.41
2022-11-04T17:43:43.627Z,100302.59
2022-11-04T17:46:26.081Z,100318.19
2022-11-04T17:48:57.406Z,100317.88
2022-11-04T17:51:28.553Z,100297.16
2022-11-04T17:53:56.626Z,100319.72
2022-11-04T17:56:25.592Z,100318.56
2022-11-04T17:59:04.029Z,100323.34
2022-11-04T18:01:36.664Z,100328.69
2022-11-04T18:04:07.324Z,100329.91
2022-11-04T18:06:39.675Z,100332.88
2022-11-04T18:09:11.103Z,100336.03
2022-11-04T18:11:56.913Z,100343.22
2022-11-04T18:14:28.684Z,100345.34
2022-11-04T18:17:02.712Z,100343.28
2022-11-04T18:19:31.668Z,100349.81
2022-11-04T18:22:08.593Z,100343.63
2022-11-04T18:24:36.376Z,100346.31
2022-11-04T18:27:04.533Z,100347.31
2022-11-04T18:29:33.665Z,100359.63
2022-11-04T18:32:04.837Z,100360.22
2022-11-04T18:34:33.944Z,100352.88
2022-11-04T18:37:08.162Z,100356.88
2022-11-04T18:39:37.294Z,100372.69
2022-11-04T18:42:05.690Z,100367.81
2022-11-04T18:44:34.992Z,100361.31
2022-11-04T18:47:03.251Z,100350.94
2022-11-04T18:52:12.986Z,100358.72
2022-11-04T18:54:43.673Z,100349.50
2022-11-04T18:57:12.048Z,100361.63
2022-11-04T18:59:41.329Z,100359.09
2022-11-04T19:02:16.879Z,100362.97
2022-11-04T19:04:44.807Z,100363.09
2022-11-04T19:07:19.446Z,100364.31
2022-11-04T19:09:48.181Z,100370.34
2022-11-04T19:12:37.009Z,100375.22
2022-11-04T19:15:07.786Z,100382.06
2022-11-04T19:17:39.659Z,100382.81
2022-11-04T19:20:12.114Z,100382.09
2022-11-04T19:22:41.212Z,100394.69
2022-11-04T19:25:12.269Z,100394.88
2022-11-04T19:27:40.134Z,100399.31
2022-11-04T19:30:10.454Z,100391.38
2022-11-04T19:32:38.246Z,100398.59
2022-11-04T19:35:06.858Z,100407.03
2022-11-04T19:37:34.661Z,100412.06
2022-11-04T19:40:04.689Z,100417.53
2022-11-04T19:42:51.967Z,100414.00
2022-11-04T19:45:22.322Z,100415.78
2022-11-04T19:47:50.262Z,100395.81
2022-11-04T19:50:19.814Z,100420.19
2022-11-04T19:52:47.681Z,100420.06
2022-11-04T19:55:15.841Z,100415.59
2022-11-04T19:57:49.960Z,100420.75
2022-11-04T20:00:23.812Z,100419.09
2022-11-04T20:02:52.586Z,100424.41
2022-11-04T20:05:26.967Z,100437.69
2022-11-04T20:07:55.072Z,100440.06
2022-11-04T20:10:24.414Z,100436.78
2022-11-04T20:13:09.870Z,100435.28
2022-11-04T20:15:42.097Z,100443.00
2022-11-04T20:18:10.332Z,100448.63
2022-11-04T20:20:38.427Z,100447.59
2022-11-04T20:23:07.431Z,100446.28
2022-11-04T20:25:35.250Z,100446.16
2022-11-04T20:28:03.376Z,100446.63
2022-11-04T20:30:36.567Z,100454.75
2022-11-04T20:33:07.332Z,100454.00
2022-11-04T20:35:35.979Z,100459.06
2022-11-04T20:38:03.846Z,100457.00
2022-11-04T20:40:33.873Z,100460.84
2022-11-04T20:43:04.645Z,100472.25
2022-11-04T20:45:32.650Z,100471.06
2022-11-04T20:48:00.533Z,100473.25
2022-11-04T20:50:32.418Z,100478.72
2022-11-04T20:53:00.197Z,100485.09
2022-11-04T20:55:29.110Z,100489.06
2022-11-04T20:58:02.960Z,100493.81
2022-11-04T21:00:35.168Z,100498.38
2022-11-04T21:03:02.873Z,100491.59
2022-11-04T21:05:32.176Z,100460.09
2022-11-04T21:08:00.012Z,100503.25
2022-11-04T21:10:27.774Z,100502.22
2022-11-04T21:12:55.702Z,100508.84
2022-11-04T21:15:41.462Z,100511.06
2022-11-04T21:18:10.196Z,100514.47
2022-11-04T21:20:41.872Z,100519.31
2022-11-04T21:23:10.313Z,100521.13
2022-11-04T21:25:42.527Z,100519.31
2022-11-04T21:28:13.260Z,100524.06
2022-11-04T21:30:45.362Z,100522.44
2022-11-04T21:33:14.770Z,100528.78
2022-11-04T21:35:44.704Z,100529.22
2022-11-04T21:38:15.511Z,100522.25
2022-11-04T21:40:47.238Z,100530.09
2022-11-04T21:43:15.677Z,100538.19
2022-11-04T21:45:43.514Z,100551.16
2022-11-04T21:48:11.596Z,100544.97
2022-11-04T21:50:39.466Z,100546.28
2022-11-04T21:53:08.686Z,100547.03
2022-11-04T21:55:39.576Z,100543.63
2022-11-04T21:58:07.629Z,100544.78
2022-11-04T22:00:38.889Z,100553.81
2022-11-04T22:03:06.602Z,100547.88
2022-11-04T22:05:34.419Z,100552.28
2022-11-04T22:08:17.914Z,100558.03
2022-11-04T22:10:47.085Z,100557.00
2022-11-04T22:13:17.627Z,100539.13
2022-11-04T22:16:02.927Z,100561.72
2022-11-04T22:18:32.843Z,100564.78
2022-11-04T22:21:06.973Z,100564.97
2022-11-04T22:23:37.542Z,100560.38
2022-11-04T22:26:08.665Z,100568.78
2022-11-04T22:28:36.659Z,100563.03
2022-11-04T22:31:09.067Z,100572.00
2022-11-04T22:33:40.590Z,100575.97
2022-11-04T22:36:09.585Z,100572.44
2022-11-04T22:38:39.411Z,100573.19
2022-11-04T22:41:09.912Z,100570.34
2022-11-04T22:43:37.871Z,100576.81
2022-11-04T22:46:09.316Z,100570.47
2022-11-04T22:48:37.966Z,100580.19
2022-11-04T22:51:08.005Z,100589.06
2022-11-04T22:53:36.206Z,100577.50
2022-11-04T22:56:05.790Z,100590.22
2022-11-04T22:58:35.394Z,100583.97
2022-11-04T23:01:07.879Z,100590.66
2022-11-04T23:03:35.747Z,100551.38
2022-11-04T23:06:05.403Z,100600.50
2022-11-04T23:08:35.090Z,100598.53
2022-11-04T23:11:31.255Z,100586.84
2022-11-04T23:14:30.229Z,100598.66
2022-11-04T23:17:19.153Z,100604.78
2022-11-04T23:19:46.957Z,100610.97
2022-11-04T23:22:32.629Z,100614.53
2022-11-04T23:25:10.440Z,100623.50
2022-11-04T23:28:02.840Z,100613.13
2022-11-04T23:30:34.244Z,100620.66
2022-11-04T23:33:06.871Z,100623.16
2022-11-04T23:35:57.798Z,100618.59
2022-11-04T23:38:26.453Z,100619.72
2022-11-04T23:41:22.665Z,100622.97
2022-11-04T23:43:50.515Z,100625.88
2022-11-04T23:46:45.929Z,100630.56
2022-11-04T23:49:31.617Z,100636.00
2022-11-04T23:52:19.256Z,100641.41
2022-11-04T23:55:04.490Z,100642.88
2022-11-04T23:57:50.117Z,100646.84
